Faulkner, Maryland
Current Conditions -  °F | °C
As of 9:56 AM on Saturday 20 Dec 2014 (Local Time) from KNYG Reporting Station
Clear Clear  
Wind Chill: 26°   Ceiling: Unl
Heat Index: 32°   Visibility: 10mi
Dew Point: 22°   Wind: 6mph
Humidity: 66%   Direction: 30°NNE
Pressure: 30.35"   Gusts: NA
Location:  38.44°N, 76.98°W
Report Text: KNYG 201456Z AUTO 03005KT 10SM CLR 00/M06 A3035 RMK AO2 SLP277 T00001056 50004 $
Loading
Personal Weather Stations






























Interactive Weather Map New forecast layout! Learn more

10-Day Weather Forecast

Advertisements
Track Severe Weather on mobile